Hidden Valley, PA (15502)

12:47 PM EDT on July 30, 2016 (GMT -0400)
northwest of court house 1 1/2 blocks | | Change Station

Elev 2139 ft 40.01 °N, 79.08 °W | Updated 10 minutes ago

Heavy Rain
Heavy Rain Mist
72.1 °F
Feels Like 72 °F
N
5.8
Wind Variable Wind from West

Today
High -- | Low -- °F
--% Chance of Precip.
Yesterday
High -- | Low -- °F
Precip. -- in
Pressure 30.04 in
Visibility 2.0 miles
Clouds Few 400 ft
Mostly Cloudy 5500 ft
Overcast 7000 ft
Heat Index 72 °F
Dew Point 66 °F
Humidity 82%
Rainfall 0.13 in
Snow Depth Not available.
6:13 AM 8:31 PM
Waning Crescent, 12% visible
SPECI KJST 301641Z AUTO 07004KT 2SM +RA BR FEW004 BKN055 OVC070 19/18 A3004 RMK AO2 LTG DSNT NE TSE00 P0083 T01940178
Pressure 30.04 in
Visibility 2.0 miles
Clouds Few 400 ft
Mostly Cloudy 5500 ft
Overcast 7000 ft
Heat Index 72 °F
Dew Point 66 °F
Humidity 82%
Rainfall 0.13 in
Snow Depth Not available.
6:13 AM 8:31 PM
Waning Crescent, 12% visible
SPECI KJST 301641Z AUTO 07004KT 2SM +RA BR FEW004 BKN055 OVC070 19/18 A3004 RMK AO2 LTG DSNT NE TSE00 P0083 T01940178

10-Day Weather Forecast

Almanac

Astronomy

Jul. 30, 2016 Rise Set
Actual Time
Civil Twilight
Nautical Twilight
Astronomical Twilight
Moon
Length of Visible Light
Length of Day
Tomorrow will be .
, % of the Moon is Illuminated

Today's Extremes

State Highs State Lows

Community

WunderPhotos

Upload Photos

1,928,597 photos uploaded!

WunderBlog® & News

Nearby

Air Quality

  Air Quality AQ Index Pollutant
Not available.

Snow Depth

Station Depth Elevation

Earthquake Activity

City Distance Mag. Time & Date
Minimum magnitude displayed is 2.5.

Coastal Water Temperatures

Place Temperature

Stations

Nearby Weather Stations

Station Location Temp. Windchill Dew Point Humidity Wind Precip. Elev Updated Type
                   

Watches & Warnings

There are currently no watches in effect.